Time;durP1;ratioP1;P1;durP2;ratioP2;P2;SDS_P1;SDS_P2;PMS_P1;PMS_P2;Temp;Humidity;BMP_temperature;BMP_pressure;BME280_temperature;BME280_humidity;BME280_pressure;Samples;Min_cycle;Max_cycle;Signal;HPM_P1;HPM_P2
2021/07/10 00:00:35;;;;;;;9.13;8.23;;;;;;;19.71;58.66;97099.13;5095891;28;20292;-66
2021/07/10 00:03:01;;;;;;;8.40;7.60;;;;;;;19.90;59.17;97089.41;5094904;28;20224;-66
2021/07/10 00:05:26;;;;;;;8.50;6.83;;;;;;;20.06;57.96;97081.97;5094000;28;20420;-65
2021/07/10 00:07:52;;;;;;;7.97;7.20;;;;;;;19.98;56.98;97080.38;5093252;28;20264;-65
2021/07/10 00:10:19;;;;;;;8.00;7.20;;;;;;;19.60;57.97;97074.03;5093362;28;20330;-65
2021/07/10 00:12:44;;;;;;;7.80;7.10;;;;;;;19.54;60.12;97079.38;5094965;28;20457;-66
2021/07/10 00:15:13;;;;;;;8.50;7.60;;;;;;;19.36;59.30;97078.25;5093431;28;20424;-66
2021/07/10 00:17:38;;;;;;;8.23;7.33;;;;;;;19.47;61.14;97072.25;5093973;28;20197;-66
2021/07/10 00:20:08;;;;;;;8.90;7.70;;;;;;;20.16;58.18;97065.53;5090387;28;20443;-66
2021/07/10 00:22:34;;;;;;;8.40;7.60;;;;;;;20.25;57.99;97067.66;5096237;28;20834;-65
2021/07/10 00:25:01;;;;;;;7.97;7.17;;;;;;;20.26;57.09;97071.16;5094952;28;20424;-66
2021/07/10 00:27:27;;;;;;;7.43;6.77;;;;;;;19.94;57.53;97069.34;5102308;28;20177;-66
2021/07/10 00:29:52;;;;;;;8.03;6.80;;;;;;;19.97;59.16;97065.44;5099677;28;20890;-66
2021/07/10 00:32:18;;;;;;;11.57;6.73;;;;;;;20.66;57.09;97054.81;5101642;28;20181;-66
2021/07/10 00:34:44;;;;;;;7.07;6.30;;;;;;;21.27;54.85;97054.97;5093336;28;20186;-65
2021/07/10 00:37:09;;;;;;;6.60;6.00;;;;;;;21.53;52.35;97052.16;5094718;28;20241;-65
2021/07/10 00:39:35;;;;;;;6.40;5.80;;;;;;;21.48;53.42;97066.19;5097823;28;20200;-67
2021/07/10 00:42:00;;;;;;;6.37;5.60;;;;;;;21.12;53.71;97055.34;5101162;28;20178;-65
2021/07/10 00:44:26;;;;;;;8.40;5.83;;;;;;;20.62;56.27;97048.31;5105210;28;20201;-66
2021/07/10 00:46:51;;;;;;;7.30;6.00;;;;;;;20.34;56.16;97046.13;5098608;28;20385;-65
2021/07/10 00:49:17;;;;;;;7.10;6.40;;;;;;;20.16;57.12;97039.72;5086914;28;20258;-66
2021/07/10 00:51:43;;;;;;;6.07;5.57;;;;;;;20.09;57.82;97036.31;5092951;28;20188;-65
2021/07/10 00:54:09;;;;;;;7.70;6.77;;;;;;;19.81;57.28;97034.84;5092388;28;20519;-65
2021/07/10 00:56:35;;;;;;;6.93;5.63;;;;;;;19.84;58.83;97031.78;5092923;28;20520;-65
2021/07/10 00:59:01;;;;;;;6.83;6.23;;;;;;;19.94;59.04;97020.66;5092172;28;20265;-65
2021/07/10 01:01:27;;;;;;;8.00;6.10;;;;;;;20.66;56.55;97012.22;5091946;28;20202;-65
2021/07/10 01:03:52;;;;;;;6.57;5.63;;;;;;;21.28;54.43;97007.81;5090424;28;20792;-65
2021/07/10 01:06:18;;;;;;;5.60;5.10;;;;;;;21.29;54.29;97010.25;5092370;28;20181;-65
2021/07/10 01:08:46;;;;;;;5.83;5.33;;;;;;;21.25;54.54;97011.75;5092100;28;20245;-65
2021/07/10 01:11:12;;;;;;;7.20;6.50;;;;;;;20.84;53.46;97008.78;5092256;28;20209;-66
2021/07/10 01:13:38;;;;;;;7.27;5.93;;;;;;;20.40;55.71;97007.97;5092152;28;20412;-66
2021/07/10 01:16:04;;;;;;;5.77;5.27;;;;;;;20.12;57.90;97011.13;5092006;28;20379;-65
2021/07/10 01:18:30;;;;;;;8.47;6.23;;;;;;;19.90;57.55;97019.47;5088642;28;20680;-66
2021/07/10 01:20:56;;;;;;;7.03;6.40;;;;;;;19.60;58.17;97020.88;5091657;28;20467;-65
2021/07/10 01:23:23;;;;;;;6.30;5.70;;;;;;;19.62;59.85;97024.13;5090928;28;20851;-65
2021/07/10 01:25:48;;;;;;;11.73;6.67;;;;;;;19.86;57.27;97020.91;5091910;28;20177;-65
2021/07/10 01:28:15;;;;;;;7.83;6.77;;;;;;;19.72;58.30;97018.34;5090078;28;20985;-67
2021/07/10 01:30:41;;;;;;;8.37;7.33;;;;;;;19.52;58.47;97012.34;5093143;28;20272;-66
2021/07/10 01:33:07;;;;;;;7.00;6.40;;;;;;;19.74;59.22;97000.34;5091908;28;20431;-66
2021/07/10 01:35:33;;;;;;;14.40;6.60;;;;;;;19.87;58.05;97009.28;5091779;28;20433;-65
2021/07/10 01:38:00;;;;;;;6.90;6.30;;;;;;;19.96;58.37;97005.31;5091889;28;20424;-65
2021/07/10 01:40:26;;;;;;;6.37;5.87;;;;;;;19.88;58.97;97005.59;5093485;28;20435;-66
2021/07/10 01:42:52;;;;;;;7.63;6.93;;;;;;;19.77;58.25;96999.91;5092625;28;20427;-66
2021/07/10 01:45:20;;;;;;;7.13;5.70;;;;;;;20.24;57.14;96998.72;5091032;28;21086;-66
2021/07/10 01:47:50;;;;;;;8.33;6.73;;;;;;;20.38;55.80;96992.25;5091071;28;20494;-66
2021/07/10 01:50:17;;;;;;;7.43;6.70;;;;;;;20.09;56.59;96981.25;5090126;28;20463;-66
2021/07/10 01:52:42;;;;;;;7.47;6.63;;;;;;;19.74;57.72;96989.69;5091958;28;20489;-66
2021/07/10 01:55:10;;;;;;;6.60;5.73;;;;;;;19.71;59.07;96984.81;5090915;28;20412;-65
2021/07/10 01:57:37;;;;;;;9.67;8.37;;;;;;;19.00;59.61;96976.88;5091405;28;20788;-65
2021/07/10 02:00:28;;;;;;;8.03;7.23;;;;;;;18.66;60.62;96983.28;5090483;28;20447;-65
2021/07/10 02:02:54;;;;;;;11.50;7.83;;;;;;;18.42;61.42;96978.47;5091239;28;20436;-66
2021/07/10 02:05:22;;;;;;;7.23;6.53;;;;;;;18.48;62.76;96976.84;5090942;28;20471;-65
2021/07/10 02:07:49;;;;;;;8.27;7.47;;;;;;;18.56;61.90;96968.63;5091740;28;20491;-65
2021/07/10 02:10:16;;;;;;;9.33;7.50;;;;;;;18.71;62.81;96975.53;5091682;28;20760;-64
2021/07/10 02:12:43;;;;;;;8.60;7.57;;;;;;;19.04;60.87;96966.63;5091535;28;20428;-65
2021/07/10 02:15:09;;;;;;;7.73;6.97;;;;;;;19.08;60.70;96965.19;5090965;28;20806;-65
2021/07/10 02:17:36;;;;;;;7.27;6.57;;;;;;;19.38;59.75;96964.59;5084211;28;20420;-65
2021/07/10 02:20:07;;;;;;;6.70;6.10;;;;;;;19.56;58.49;96963.03;5091724;28;20428;-64
2021/07/10 02:22:32;;;;;;;6.10;5.57;;;;;;;20.12;57.63;96964.03;5091214;28;20850;-65
2021/07/10 02:24:58;;;;;;;6.23;5.73;;;;;;;20.52;55.75;96966.28;5091028;28;20557;-65
2021/07/10 02:27:23;;;;;;;6.47;5.17;;;;;;;20.80;54.79;96959.66;5091259;28;20178;-65
2021/07/10 02:29:49;;;;;;;6.80;5.37;;;;;;;21.10;53.74;96952.72;5091256;28;20201;-65
2021/07/10 02:32:15;;;;;;;5.60;5.10;;;;;;;21.00;52.83;96954.06;5090535;28;20637;-65
2021/07/10 02:34:40;;;;;;;6.20;5.60;;;;;;;21.11;53.40;96943.69;5093201;28;20177;-65
2021/07/10 02:37:06;;;;;;;6.73;4.90;;;;;;;21.11;52.89;96946.34;5090982;28;20206;-66
2021/07/10 02:39:31;;;;;;;6.40;5.80;;;;;;;20.90;51.85;96942.31;5090506;28;20522;-65
2021/07/10 02:41:57;;;;;;;8.30;6.07;;;;;;;20.49;53.82;96947.28;5090645;28;20193;-65
2021/07/10 02:44:23;;;;;;;6.10;5.60;;;;;;;20.19;56.44;96956.00;5090838;28;20581;-65
2021/07/10 02:46:48;;;;;;;5.50;5.00;;;;;;;20.15;55.92;96944.19;5091007;28;20273;-65
2021/07/10 02:49:14;;;;;;;8.87;6.07;;;;;;;20.20;54.96;96944.31;5087920;28;20216;-64
2021/07/10 02:51:39;;;;;;;6.10;5.50;;;;;;;20.01;56.49;96941.66;5088898;28;20194;-65
2021/07/10 02:54:05;;;;;;;7.43;6.53;;;;;;;19.92;56.15;96941.09;5089588;28;20181;-65
2021/07/10 02:56:31;;;;;;;6.90;5.53;;;;;;;20.24;55.98;96929.56;5090415;28;20659;-64
2021/07/10 02:58:57;;;;;;;5.77;5.27;;;;;;;20.75;54.29;96938.19;5090434;28;20636;-65
2021/07/10 03:01:22;;;;;;;6.27;5.67;;;;;;;20.86;53.67;96933.97;5090537;28;20489;-64
2021/07/10 03:03:48;;;;;;;6.60;6.00;;;;;;;20.75;53.85;96937.41;5090305;28;20644;-65
2021/07/10 03:06:14;;;;;;;6.90;4.63;;;;;;;20.93;53.52;96931.22;5090663;28;20617;-64
2021/07/10 03:08:42;;;;;;;5.40;4.90;;;;;;;21.37;51.95;96928.34;5088640;28;20199;-64
2021/07/10 03:11:09;;;;;;;5.50;5.00;;;;;;;21.37;51.88;96936.34;5085222;28;20811;-66
2021/07/10 03:13:35;;;;;;;7.37;5.03;;;;;;;21.11;52.78;96923.16;5094434;28;20427;-65
2021/07/10 03:16:00;;;;;;;5.23;4.80;;;;;;;21.41;51.91;96921.53;5094098;28;20420;-65
2021/07/10 03:18:26;;;;;;;8.80;5.20;;;;;;;21.60;51.11;96931.09;5091417;28;20174;-65
2021/07/10 03:20:51;;;;;;;6.20;5.70;;;;;;;21.45;51.26;96925.34;5094134;28;20661;-65
2021/07/10 03:23:17;;;;;;;6.50;5.17;;;;;;;21.17;52.60;96929.47;5093620;28;20178;-65
2021/07/10 03:25:44;;;;;;;8.90;4.80;;;;;;;21.23;52.08;96933.88;5093716;28;20535;-65
2021/07/10 03:28:09;;;;;;;7.00;5.93;;;;;;;21.02;51.66;96930.69;5089479;28;20186;-65
2021/07/10 03:30:35;;;;;;;6.00;5.50;;;;;;;21.08;52.61;96933.47;5092057;28;20466;-65
2021/07/10 03:33:01;;;;;;;5.03;4.63;;;;;;;20.70;53.40;96932.72;5095469;28;20315;-65
2021/07/10 03:35:26;;;;;;;6.53;5.90;;;;;;;20.31;54.77;96934.81;5088730;28;20322;-64
2021/07/10 03:37:52;;;;;;;7.70;5.80;;;;;;;20.23;54.34;96941.22;5087204;28;20206;-65
2021/07/10 03:40:20;;;;;;;6.20;5.70;;;;;;;20.14;54.48;96938.03;5092881;28;20209;-65
2021/07/10 03:42:46;;;;;;;6.47;5.87;;;;;;;20.05;54.93;96937.50;5094139;28;20260;-65
2021/07/10 03:45:13;;;;;;;6.63;5.47;;;;;;;19.82;56.62;96931.97;5093910;28;21083;-66
2021/07/10 03:47:39;;;;;;;7.27;5.63;;;;;;;19.69;57.14;96939.03;5093972;28;20204;-64
2021/07/10 03:50:07;;;;;;;6.57;5.97;;;;;;;20.34;54.70;96923.72;5092571;28;20554;-64
2021/07/10 03:52:32;;;;;;;9.67;7.13;;;;;;;20.59;52.82;96926.28;5091339;28;20704;-64
2021/07/10 03:54:59;;;;;;;6.77;6.17;;;;;;;20.24;54.56;96925.03;5092385;28;20419;-65
2021/07/10 03:57:25;;;;;;;7.27;6.57;;;;;;;19.90;55.43;96929.06;5093526;28;20181;-65
2021/07/10 03:59:50;;;;;;;6.33;5.73;;;;;;;19.61;56.94;96920.69;5093689;28;20783;-65
2021/07/10 04:02:16;;;;;;;8.90;6.00;;;;;;;19.56;57.61;96924.00;5092074;28;20174;-65
2021/07/10 04:04:41;;;;;;;7.50;5.70;;;;;;;19.86;56.60;96933.16;5093520;28;20182;-65
2021/07/10 04:07:07;;;;;;;6.33;5.60;;;;;;;20.37;54.85;96937.41;5092799;28;20261;-65
2021/07/10 04:09:33;;;;;;;6.03;5.43;;;;;;;20.37;54.53;96926.75;5093567;28;20202;-65
2021/07/10 04:11:58;;;;;;;7.93;5.77;;;;;;;20.46;53.41;96926.44;5093390;28;20174;-65
2021/07/10 04:14:25;;;;;;;6.13;5.17;;;;;;;20.46;54.28;96927.28;5092605;28;20169;-65
2021/07/10 04:16:51;;;;;;;5.97;5.47;;;;;;;20.98;52.79;96923.38;5092562;28;20178;-65
2021/07/10 04:19:17;;;;;;;6.10;5.47;;;;;;;20.92;52.49;96926.94;5092619;28;20767;-65
2021/07/10 04:21:42;;;;;;;6.43;5.53;;;;;;;20.86;52.20;96926.00;5095362;28;20635;-65
2021/07/10 04:24:08;;;;;;;6.97;5.93;;;;;;;20.83;51.96;96929.09;5092590;28;20193;-66
2021/07/10 04:26:33;;;;;;;5.80;5.30;;;;;;;21.08;52.45;96925.47;5092526;28;20190;-64
2021/07/10 04:28:59;;;;;;;6.63;5.47;;;;;;;21.07;52.34;96929.19;5093711;28;20197;-66
2021/07/10 04:31:25;;;;;;;6.83;6.13;;;;;;;20.48;54.61;96922.50;5092948;28;20209;-65
2021/07/10 04:33:50;;;;;;;6.17;5.67;;;;;;;20.36;55.33;96927.78;5093032;28;20907;-65
2021/07/10 04:36:16;;;;;;;7.47;5.80;;;;;;;20.60;54.92;96922.59;5092468;28;20190;-65
2021/07/10 04:38:41;;;;;;;7.37;6.37;;;;;;;20.44;54.44;96932.00;5097302;28;20288;-65
2021/07/10 04:41:07;;;;;;;6.60;6.00;;;;;;;20.64;54.43;96923.78;5093522;28;20240;-65
2021/07/10 04:43:34;;;;;;;5.50;5.10;;;;;;;20.94;53.59;96931.00;5092570;28;20212;-66
2021/07/10 04:46:00;;;;;;;6.23;5.73;;;;;;;21.02;53.73;96928.03;5091246;28;20428;-65
2021/07/10 04:48:26;;;;;;;6.67;5.80;;;;;;;21.20;53.19;96931.66;5083843;28;20456;-66
2021/07/10 04:50:51;;;;;;;7.20;6.60;;;;;;;21.05;53.25;96936.59;5092324;28;20546;-64
2021/07/10 04:53:17;;;;;;;9.87;6.53;;;;;;;20.98;54.53;96934.03;5092455;28;20181;-65
2021/07/10 04:55:43;;;;;;;6.57;6.00;;;;;;;20.90;54.56;96926.34;5092467;28;20188;-65
2021/07/10 04:58:09;;;;;;;8.43;6.33;;;;;;;20.79;54.28;96925.28;5093301;28;20587;-65
2021/07/10 05:00:34;;;;;;;7.07;6.47;;;;;;;20.73;55.48;96934.91;5095008;28;20198;-65
2021/07/10 05:03:00;;;;;;;7.77;7.00;;;;;;;20.76;55.29;96937.16;5090483;28;20675;-65
2021/07/10 05:05:26;;;;;;;8.93;7.40;;;;;;;20.91;54.99;96934.13;5078337;28;20545;-65
2021/07/10 05:07:51;;;;;;;8.27;6.07;;;;;;;21.19;54.23;96940.69;5096324;28;20192;-65
2021/07/10 05:10:17;;;;;;;10.33;6.83;;;;;;;21.21;54.05;96948.47;5085301;28;20305;-65
2021/07/10 05:12:43;;;;;;;6.23;5.73;;;;;;;20.97;55.98;96943.88;5101912;28;20264;-65
2021/07/10 05:15:09;;;;;;;7.73;6.83;;;;;;;20.85;55.65;96940.34;5091990;28;20182;-66
2021/07/10 05:17:35;;;;;;;7.70;7.00;;;;;;;20.83;55.76;96934.41;5093453;28;20174;-65
2021/07/10 05:20:01;;;;;;;6.37;5.87;;;;;;;20.97;56.05;96935.88;5093621;28;20446;-65
2021/07/10 05:22:27;;;;;;;8.07;6.70;;;;;;;20.94;55.52;96933.66;5099298;28;20181;-66
2021/07/10 05:24:53;;;;;;;8.17;7.37;;;;;;;20.81;56.48;96934.66;5105486;28;20181;-65
2021/07/10 05:27:18;;;;;;;6.20;5.57;;;;;;;21.04;55.40;96924.34;5104691;28;20462;-65
2021/07/10 05:29:44;;;;;;;8.63;7.73;;;;;;;20.91;55.66;96931.47;5099365;28;20201;-65
2021/07/10 05:32:09;;;;;;;14.17;6.00;;;;;;;20.99;56.42;96928.47;5084878;28;20248;-65
2021/07/10 05:34:35;;;;;;;7.70;6.63;;;;;;;21.15;55.42;96926.22;5091591;28;20234;-63
2021/07/10 05:37:01;;;;;;;6.77;6.20;;;;;;;21.29;54.90;96934.81;5085170;28;20182;-64
2021/07/10 05:39:26;;;;;;;9.60;7.20;;;;;;;21.35;54.83;96927.75;5082099;28;20194;-65
2021/07/10 05:41:52;;;;;;;7.40;6.80;;;;;;;21.46;54.70;96932.31;5081831;28;20208;-65
2021/07/10 05:44:17;;;;;;;7.77;7.07;;;;;;;21.49;54.83;96926.53;5085834;28;20541;-65
2021/07/10 05:46:43;;;;;;;7.40;6.70;;;;;;;21.50;54.99;96925.47;5080879;28;20508;-65
2021/07/10 05:49:09;;;;;;;7.03;6.37;;;;;;;21.65;55.11;96917.06;5091786;28;20355;-65
2021/07/10 05:51:34;;;;;;;7.10;6.40;;;;;;;21.69;54.16;96922.75;5091561;28;20204;-65
2021/07/10 05:54:00;;;;;;;7.67;5.50;;;;;;;22.05;53.67;96931.59;5091763;28;20720;-65
2021/07/10 05:56:26;;;;;;;9.87;6.07;;;;;;;22.18;53.65;96928.66;5092433;28;20213;-65
2021/07/10 05:58:52;;;;;;;6.77;6.07;;;;;;;22.14;53.96;96932.84;5091620;28;20641;-65
2021/07/10 06:01:17;;;;;;;10.30;7.40;;;;;;;22.18;53.19;96931.31;5089880;28;20209;-64
2021/07/10 06:03:43;;;;;;;6.63;6.03;;;;;;;22.43;53.27;96911.59;5090192;28;20250;-65
2021/07/10 06:06:08;;;;;;;7.80;6.47;;;;;;;22.53;52.82;96911.00;5091453;28;20197;-65
2021/07/10 06:08:34;;;;;;;6.90;6.23;;;;;;;22.49;52.80;96905.31;5091093;28;20197;-65
2021/07/10 06:10:59;;;;;;;5.70;5.10;;;;;;;22.69;52.27;96915.59;5089111;28;20201;-66
2021/07/10 06:13:25;;;;;;;11.93;5.90;;;;;;;22.78;51.57;96916.03;5091016;28;20174;-65
2021/07/10 06:15:51;;;;;;;13.23;6.17;;;;;;;22.94;51.34;96913.63;5086941;28;20182;-65
2021/07/10 06:18:16;;;;;;;10.90;6.10;;;;;;;22.70;52.32;96911.03;5084293;28;20214;-65
2021/07/10 06:20:42;;;;;;;5.83;5.33;;;;;;;22.91;51.18;96911.44;5085846;28;20205;-66
2021/07/10 06:23:08;;;;;;;6.23;5.57;;;;;;;23.06;50.80;96909.03;5091602;28;20200;-66
2021/07/10 06:25:35;;;;;;;30.00;17.93;;;;;;;23.18;49.54;96909.00;5090143;28;20192;-66
2021/07/10 06:28:02;;;;;;;7.17;5.30;;;;;;;23.20;49.76;96912.28;5087922;28;20223;-65
2021/07/10 06:30:28;;;;;;;13.73;5.40;;;;;;;23.14;50.36;96915.84;5088014;28;20927;-65
2021/07/10 06:32:54;;;;;;;5.80;5.17;;;;;;;23.07;50.58;96917.88;5086826;28;20459;-65
2021/07/10 06:35:19;;;;;;;5.30;4.90;;;;;;;23.03;49.44;96909.53;5090316;28;20553;-64
2021/07/10 06:37:45;;;;;;;4.90;4.50;;;;;;;23.07;49.39;96915.22;5080369;28;20188;-65
2021/07/10 06:40:13;;;;;;;6.00;5.43;;;;;;;22.96;49.95;96903.50;5088255;28;20236;-66
2021/07/10 06:42:38;;;;;;;5.73;5.13;;;;;;;23.11;49.20;96908.34;5090822;28;20619;-64
2021/07/10 06:45:10;;;;;;;9.80;5.30;;;;;;;23.12;49.28;96905.41;5089568;28;20536;-66
2021/07/10 06:47:36;;;;;;;9.03;5.30;;;;;;;23.23;48.97;96913.66;5087988;28;20188;-65
2021/07/10 06:50:03;;;;;;;8.23;5.47;;;;;;;22.99;49.65;96908.38;5097546;28;20483;-66
2021/07/10 06:52:29;;;;;;;5.70;5.23;;;;;;;22.83;49.83;96916.09;5096090;28;20430;-65
2021/07/10 06:54:55;;;;;;;7.03;5.10;;;;;;;23.07;49.73;96910.66;5094869;28;20503;-64
2021/07/10 06:57:20;;;;;;;5.77;4.40;;;;;;;23.51;48.97;96911.97;5094755;28;20181;-64
2021/07/10 06:59:46;;;;;;;5.33;4.70;;;;;;;23.74;48.16;96913.69;5095496;28;20521;-64
2021/07/10 07:02:12;;;;;;;6.43;4.27;;;;;;;23.88;47.36;96903.44;5094118;28;20190;-66
2021/07/10 07:04:39;;;;;;;5.50;5.00;;;;;;;23.01;49.57;96907.09;5095020;28;20614;-64
2021/07/10 07:07:05;;;;;;;7.10;4.03;;;;;;;23.57;48.36;96893.09;5094845;28;20586;-65
2021/07/10 07:09:31;;;;;;;5.20;4.60;;;;;;;23.91;47.43;96897.59;5094886;28;20512;-65
2021/07/10 07:11:56;;;;;;;5.50;4.50;;;;;;;23.63;48.20;96891.31;5094806;28;20415;-65
2021/07/10 07:14:22;;;;;;;24.73;17.03;;;;;;;24.10;47.59;96890.13;5094295;28;20311;-65
2021/07/10 07:16:48;;;;;;;5.23;4.23;;;;;;;24.43;47.00;96882.25;5087011;28;20209;-64
2021/07/10 07:19:13;;;;;;;28.63;16.23;;;;;;;24.43;45.35;96883.03;5095538;28;20184;-65
2021/07/10 07:21:39;;;;;;;10.53;4.50;;;;;;;24.72;45.25;96874.00;5094311;28;20562;-66
2021/07/10 07:24:06;;;;;;;4.80;4.30;;;;;;;24.44;45.62;96878.50;5094541;28;20264;-65
2021/07/10 07:26:32;;;;;;;6.43;5.40;;;;;;;24.65;45.29;96884.91;5094514;28;20416;-66
2021/07/10 07:28:58;;;;;;;6.63;4.47;;;;;;;24.81;45.07;96878.69;5095588;28;20519;-65
2021/07/10 07:31:23;;;;;;;4.67;4.27;;;;;;;24.99;43.99;96877.50;5091268;28;20439;-65
2021/07/10 07:33:49;;;;;;;4.47;4.07;;;;;;;24.47;44.97;96876.13;5094114;28;20186;-65
2021/07/10 07:36:14;;;;;;;6.93;5.07;;;;;;;24.69;44.73;96870.81;5094117;28;20269;-65
2021/07/10 07:38:40;;;;;;;12.43;7.63;;;;;;;24.79;44.63;96874.63;5087260;28;20194;-66
2021/07/10 07:41:07;;;;;;;8.70;6.17;;;;;;;24.31;45.16;96868.97;5093434;28;20206;-66
2021/07/10 07:43:33;;;;;;;3.97;3.67;;;;;;;24.54;44.13;96875.94;5082408;28;20840;-67
2021/07/10 07:45:58;;;;;;;7.20;5.97;;;;;;;25.00;43.74;96876.47;5085786;28;20490;-66
2021/07/10 07:48:24;;;;;;;4.63;4.00;;;;;;;25.10;44.20;96865.03;5093199;28;20177;-65
2021/07/10 07:50:50;;;;;;;4.50;4.20;;;;;;;25.16;44.05;96868.56;5093252;28;20205;-66
2021/07/10 07:53:16;;;;;;;5.13;4.60;;;;;;;25.29;44.84;96870.00;5093007;28;20196;-65
2021/07/10 07:55:43;;;;;;;5.60;5.10;;;;;;;25.27;45.37;96862.22;5091683;28;20201;-65
2021/07/10 07:58:09;;;;;;;5.87;4.73;;;;;;;25.83;43.77;96861.03;5063279;28;20452;-65
2021/07/10 08:00:34;;;;;;;4.67;4.27;;;;;;;24.95;45.06;96856.84;5087899;28;20468;-65
2021/07/10 08:03:00;;;;;;;5.50;5.00;;;;;;;24.64;45.33;96859.16;5093165;28;20185;-66
2021/07/10 08:05:25;;;;;;;7.03;4.37;;;;;;;25.11;44.11;96855.09;5084655;28;20178;-66
2021/07/10 08:07:52;;;;;;;4.80;4.10;;;;;;;25.35;42.51;96860.13;5090159;28;20261;-66
2021/07/10 08:10:18;;;;;;;4.37;4.07;;;;;;;25.85;41.10;96855.41;5089367;28;20220;-66
2021/07/10 08:12:45;;;;;;;4.10;3.80;;;;;;;25.49;42.66;96850.59;5092778;28;20773;-66
2021/07/10 08:15:14;;;;;;;5.10;4.70;;;;;;;25.43;43.36;96857.00;5071115;28;20717;-66
2021/07/10 08:17:40;;;;;;;7.50;4.80;;;;;;;25.45;43.75;96857.56;5085646;28;20665;-67
2021/07/10 08:20:06;;;;;;;5.37;4.87;;;;;;;25.79;41.55;96849.22;5074002;28;20440;-67
2021/07/10 08:22:32;;;;;;;14.63;4.67;;;;;;;26.18;41.13;96851.59;5089865;28;20431;-67
2021/07/10 08:24:58;;;;;;;5.97;4.70;;;;;;;26.07;41.35;96847.22;5091285;28;20879;-66
2021/07/10 08:27:23;;;;;;;4.60;4.20;;;;;;;25.34;42.79;96847.78;5092379;28;20455;-64
2021/07/10 08:29:49;;;;;;;5.57;4.00;;;;;;;25.38;41.86;96847.03;5091746;28;20228;-65
2021/07/10 08:32:15;;;;;;;4.03;3.73;;;;;;;25.59;41.66;96839.16;5091183;28;20563;-65
2021/07/10 08:34:41;;;;;;;4.03;3.67;;;;;;;25.72;40.80;96843.25;5094002;28;20226;-64
2021/07/10 08:37:06;;;;;;;6.13;4.73;;;;;;;25.58;42.67;96843.69;5091839;28;20186;-64
2021/07/10 08:39:32;;;;;;;8.17;4.60;;;;;;;25.58;42.91;96849.06;5055428;28;1120315;-65
2021/07/10 08:41:58;;;;;;;4.43;4.10;;;;;;;26.33;41.51;96833.94;5091314;28;20185;-64
2021/07/10 08:44:25;;;;;;;4.97;4.53;;;;;;;26.73;40.85;96845.84;5091855;28;20593;-64
2021/07/10 08:46:51;;;;;;;5.13;4.73;;;;;;;26.59;40.53;96834.00;5084213;28;20185;-65
2021/07/10 08:49:17;;;;;;;4.60;4.17;;;;;;;26.35;40.91;96834.44;5093341;28;20565;-65
2021/07/10 08:51:46;;;;;;;4.13;3.63;;;;;;;26.65;39.67;96833.72;5092613;28;20826;-64
2021/07/10 08:54:12;;;;;;;4.33;3.90;;;;;;;26.78;39.46;96840.50;5091111;28;20443;-64
2021/07/10 08:56:38;;;;;;;3.40;3.20;;;;;;;26.71;39.23;96831.88;5092169;28;20438;-63
2021/07/10 08:59:04;;;;;;;4.13;3.80;;;;;;;26.67;39.49;96836.97;5092921;28;20416;-64
2021/07/10 09:01:30;;;;;;;5.50;3.60;;;;;;;26.87;37.91;96835.44;5093232;28;20994;-64
2021/07/10 09:03:55;;;;;;;5.93;3.50;;;;;;;26.89;38.13;96830.59;5090972;28;20185;-64
2021/07/10 09:06:21;;;;;;;3.97;3.67;;;;;;;26.42;39.65;96835.03;5091875;28;20238;-65
2021/07/10 09:08:55;;;;;;;4.60;3.23;;;;;;;26.79;37.97;96827.88;5073710;28;20201;-63
2021/07/10 09:11:21;;;;;;;4.17;3.07;;;;;;;27.23;36.94;96826.56;5087905;28;20244;-64
2021/07/10 09:13:52;;;;;;;5.37;3.10;;;;;;;27.29;36.73;96828.19;5092284;28;20490;-65
2021/07/10 09:16:27;;;;;;;3.80;2.80;;;;;;;27.31;36.78;96822.53;5084304;28;21104;-65
2021/07/10 09:18:58;;;;;;;13.30;3.60;;;;;;;27.07;37.50;96818.50;5092049;28;20416;-65
2021/07/10 09:21:43;;;;;;;4.90;2.80;;;;;;;26.45;37.96;96822.94;5091817;28;20431;-66
2021/07/10 09:24:32;;;;;;;4.40;3.07;;;;;;;27.24;36.47;96817.41;5091658;28;20419;-64
2021/07/10 09:27:04;;;;;;;5.00;4.50;;;;;;;27.50;35.97;96825.50;5091286;28;20436;-65
2021/07/10 09:29:36;;;;;;;3.20;3.00;;;;;;;27.12;37.01;96815.81;5092317;28;20801;-66
2021/07/10 09:32:04;;;;;;;12.17;7.33;;;;;;;27.24;36.69;96823.63;5092351;28;20857;-65
2021/07/10 09:34:40;;;;;;;9.17;4.80;;;;;;;27.81;35.87;96803.91;5088631;28;20523;-65
2021/07/10 09:37:16;;;;;;;3.00;2.80;;;;;;;27.52;35.97;96807.19;5092320;28;20530;-65
2021/07/10 09:39:49;;;;;;;4.43;2.87;;;;;;;27.04;36.68;96816.34;5086650;28;20415;-64
2021/07/10 09:42:15;;;;;;;4.07;3.67;;;;;;;27.47;36.08;96817.97;5092482;28;20875;-64
2021/07/10 09:44:47;;;;;;;6.03;3.13;;;;;;;27.79;35.21;96808.75;5094266;28;20523;-65
2021/07/10 09:47:15;;;;;;;3.10;2.80;;;;;;;28.10;34.79;96801.41;5091218;28;20424;-65
2021/07/10 09:49:44;;;;;;;2.80;2.60;;;;;;;27.77;35.78;96803.66;5102255;28;20444;-65
2021/07/10 09:52:13;;;;;;;12.13;3.03;;;;;;;27.73;36.31;96798.00;5097006;28;20419;-65
2021/07/10 09:54:48;;;;;;;6.63;5.43;;;;;;;27.93;35.55;96795.50;5092347;28;20917;-65
2021/07/10 09:57:19;;;;;;;37.50;18.20;;;;;;;28.27;34.80;96789.50;5092454;28;20446;-65
2021/07/10 09:59:46;;;;;;;3.80;3.13;;;;;;;28.20;34.61;96787.09;5092658;28;20830;-66
2021/07/10 10:02:15;;;;;;;5.27;3.23;;;;;;;27.53;35.70;96792.66;5099469;28;20741;-64
2021/07/10 10:04:40;;;;;;;2.70;2.50;;;;;;;27.31;36.06;96788.38;5101447;28;20548;-65
2021/07/10 10:07:18;;;;;;;3.30;3.00;;;;;;;27.90;34.72;96786.09;5103605;28;20424;-65
2021/07/10 10:09:45;;;;;;;3.77;2.70;;;;;;;27.13;36.60;96795.13;5098643;28;20216;-66
2021/07/10 10:12:12;;;;;;;2.60;2.40;;;;;;;27.77;34.77;96781.31;5091758;28;20424;-65
2021/07/10 10:14:47;;;;;;;3.03;2.67;;;;;;;27.19;34.60;96790.53;5091417;28;20478;-66
2021/07/10 10:17:14;;;;;;;4.87;3.83;;;;;;;27.88;34.58;96788.25;5081757;28;20844;-66
2021/07/10 10:19:42;;;;;;;5.33;2.90;;;;;;;27.36;35.74;96782.97;5090663;28;20420;-67
2021/07/10 10:22:09;;;;;;;3.13;2.40;;;;;;;27.91;34.43;96782.34;5089693;28;20902;-66
2021/07/10 10:24:36;;;;;;;2.80;2.60;;;;;;;28.26;34.02;96775.19;5090578;28;20447;-66
2021/07/10 10:27:02;;;;;;;3.03;2.53;;;;;;;28.50;33.77;96777.22;5081820;28;20508;-67
2021/07/10 10:29:28;;;;;;;2.63;2.43;;;;;;;28.45;33.80;96772.66;5093670;28;20462;-65
2021/07/10 10:31:56;;;;;;;26.17;13.90;;;;;;;28.03;34.64;96763.97;5094037;28;20432;-66
2021/07/10 10:34:22;;;;;;;10.70;7.63;;;;;;;28.07;35.08;96768.81;5090946;28;20973;-66
2021/07/10 10:36:49;;;;;;;5.00;4.07;;;;;;;27.58;35.62;96771.94;5091332;28;20424;-65
2021/07/10 10:39:21;;;;;;;3.40;3.10;;;;;;;28.47;33.43;96762.44;5090018;28;20438;-66
2021/07/10 10:41:52;;;;;;;3.70;3.10;;;;;;;28.15;34.20;96765.56;5087827;28;20505;-67
2021/07/10 10:44:19;;;;;;;3.20;2.90;;;;;;;28.08;34.51;96760.44;5084507;28;20871;-65
2021/07/10 10:46:55;;;;;;;7.33;4.43;;;;;;;27.85;34.71;96761.91;5065320;28;20526;-64
2021/07/10 10:49:49;;;;;;;2.50;2.30;;;;;;;28.07;34.17;96758.03;5091466;28;20459;-66
2021/07/10 10:52:45;;;;;;;3.90;2.57;;;;;;;27.79;34.93;96757.63;5090775;28;20430;-65
2021/07/10 10:55:18;;;;;;;3.03;2.57;;;;;;;27.88;34.45;96750.56;5083802;28;20834;-65
2021/07/10 10:57:44;;;;;;;3.43;2.80;;;;;;;28.01;33.88;96744.59;5090229;28;20481;-65
2021/07/10 11:00:13;;;;;;;3.90;2.80;;;;;;;27.85;34.62;96740.38;5089382;28;20440;-67
2021/07/10 11:02:49;;;;;;;5.37;3.10;;;;;;;28.32;34.58;96733.69;5090952;28;20182;-67
2021/07/10 11:05:34;;;;;;;2.73;2.53;;;;;;;28.48;32.70;96737.09;5090257;28;20488;-67
2021/07/10 11:08:21;;;;;;;2.97;2.67;;;;;;;28.77;33.50;96735.56;5091358;28;20434;-65
2021/07/10 11:11:07;;;;;;;3.53;3.20;;;;;;;28.93;32.30;96731.66;5084621;28;20443;-67
2021/07/10 11:13:46;;;;;;;3.30;2.87;;;;;;;28.66;33.29;96715.97;5089287;28;20443;-68
2021/07/10 11:16:18;;;;;;;3.03;2.37;;;;;;;28.88;31.98;96712.81;5082205;28;20432;-68
2021/07/10 11:18:58;;;;;;;2.20;1.97;;;;;;;29.50;30.31;96700.66;5090990;28;20502;-66
2021/07/10 11:24:17;;;;;;;4.10;2.40;;;;;;;29.70;29.98;96700.41;5089893;28;20446;-67
2021/07/10 11:26:43;;;;;;;4.13;2.10;;;;;;;30.16;29.69;96690.13;5090904;28;20434;-66
2021/07/10 11:29:28;;;;;;;2.33;2.13;;;;;;;29.54;29.82;96690.91;5090317;28;20455;-68
2021/07/10 11:32:14;;;;;;;2.63;2.43;;;;;;;29.68;29.84;96689.09;5090508;28;20466;-67
2021/07/10 11:34:57;;;;;;;2.47;2.27;;;;;;;29.46;31.06;96681.53;5092558;28;20432;-67